Time;durP1;ratioP1;P1;durP2;ratioP2;P2;SDS_P1;SDS_P2;PMS_P1;PMS_P2;Temp;Humidity;BMP_temperature;BMP_pressure;BME280_temperature;BME280_humidity;BME280_pressure;Samples;Min_cycle;Max_cycle;Signal;HPM_P1;HPM_P2
2022/12/24 00:01:12;;;;;;;51.17;21.00;;;6.70;99.90;;;;;;6171563;23;20017;-69
2022/12/24 00:03:38;;;;;;;61.72;22.35;;;6.70;99.90;;;;;;6171764;23;20396;-69
2022/12/24 00:06:08;;;;;;;58.35;22.70;;;6.70;99.90;;;;;;6175443;23;20330;-68
2022/12/24 00:08:34;;;;;;;54.55;21.95;;;6.70;99.90;;;;;;6175439;23;20087;-69
2022/12/24 00:11:00;;;;;;;60.58;21.55;;;6.70;99.90;;;;;;6174122;23;20024;-68
2022/12/24 00:13:26;;;;;;;57.30;21.70;;;6.60;99.90;;;;;;6173354;23;20024;-69
2022/12/24 00:15:51;;;;;;;56.17;21.98;;;6.80;99.90;;;;;;6175523;23;20029;-68
2022/12/24 00:18:17;;;;;;;58.10;21.58;;;6.70;99.90;;;;;;6175498;23;20025;-69
2022/12/24 00:20:48;;;;;;;64.45;22.23;;;6.60;99.90;;;;;;6173568;23;20024;-69
2022/12/24 00:23:14;;;;;;;60.70;22.08;;;6.70;99.90;;;;;;6175518;23;20096;-68
2022/12/24 00:25:39;;;;;;;55.95;22.05;;;6.60;99.90;;;;;;6175495;23;20067;-69
2022/12/24 00:28:05;;;;;;;55.38;21.83;;;6.60;99.90;;;;;;6175165;23;20025;-68
2022/12/24 00:30:31;;;;;;;57.78;22.45;;;6.70;99.90;;;;;;6173718;23;20372;-68
2022/12/24 00:32:56;;;;;;;54.13;21.85;;;6.70;99.90;;;;;;6175716;23;20477;-68
2022/12/24 00:35:22;;;;;;;66.75;22.83;;;6.70;99.90;;;;;;6174816;23;20029;-69
2022/12/24 00:37:49;;;;;;;56.17;20.75;;;6.80;99.90;;;;;;6176473;23;20076;-68
2022/12/24 00:40:17;;;;;;;54.55;21.02;;;6.70;99.90;;;;;;6176370;23;20095;-69
2022/12/24 00:42:43;;;;;;;60.53;21.83;;;6.80;99.90;;;;;;6174435;23;20076;-69
2022/12/24 00:45:09;;;;;;;57.50;22.05;;;6.70;99.90;;;;;;6149673;23;20021;-69
2022/12/24 00:47:35;;;;;;;60.00;22.60;;;6.80;99.90;;;;;;6148591;23;20025;-69
2022/12/24 00:50:01;;;;;;;67.70;23.02;;;6.70;99.90;;;;;;6147829;23;20357;-70
2022/12/24 00:52:27;;;;;;;62.03;21.63;;;6.70;99.90;;;;;;6149811;23;20020;-69
2022/12/24 00:54:53;;;;;;;56.35;21.80;;;6.70;99.90;;;;;;6148030;23;20410;-69
2022/12/24 00:57:18;;;;;;;64.07;23.35;;;6.70;99.90;;;;;;6148444;23;20032;-69
2022/12/24 00:59:44;;;;;;;55.10;20.80;;;6.80;99.90;;;;;;6150947;23;20147;-69
2022/12/24 01:02:09;;;;;;;60.45;22.73;;;6.70;99.90;;;;;;6147163;23;20025;-69
2022/12/24 01:07:19;;;;;;;84.47;25.08;;;6.70;99.90;;;;;;6149255;23;20100;-69
2022/12/24 01:09:45;;;;;;;62.40;22.88;;;6.80;99.90;;;;;;6150111;23;20452;-69
2022/12/24 01:12:11;;;;;;;57.70;22.65;;;6.70;99.90;;;;;;6173794;23;20453;-70
2022/12/24 01:14:37;;;;;;;68.30;24.00;;;6.70;99.90;;;;;;6177624;23;20057;-69
2022/12/24 01:17:03;;;;;;;72.10;24.23;;;6.70;99.90;;;;;;6173380;23;20017;-69
2022/12/24 01:19:28;;;;;;;83.68;23.70;;;6.80;99.90;;;;;;6173742;23;20035;-69
2022/12/24 01:21:54;;;;;;;81.07;23.42;;;6.80;99.90;;;;;;6148704;23;20020;-70
2022/12/24 01:24:20;;;;;;;72.60;23.33;;;6.80;99.90;;;;;;6149585;23;20113;-70
2022/12/24 01:26:45;;;;;;;52.40;22.00;;;6.70;99.90;;;;;;6150955;23;20678;-70
2022/12/24 01:29:11;;;;;;;62.42;22.70;;;6.70;99.90;;;;;;6176870;23;20464;-71
2022/12/24 01:31:37;;;;;;;66.53;22.63;;;6.80;99.90;;;;;;6144857;23;20114;-69
2022/12/24 01:34:02;;;;;;;92.57;24.75;;;6.80;99.90;;;;;;6177773;23;20043;-69
2022/12/24 01:36:28;;;;;;;55.13;21.40;;;6.70;99.90;;;;;;6149907;23;20025;-69
2022/12/24 01:38:54;;;;;;;52.63;22.00;;;6.80;99.90;;;;;;6149534;23;20020;-69
2022/12/24 01:44:19;;;;;;;53.08;21.05;;;6.70;99.90;;;;;;6148697;23;20349;-69
2022/12/24 01:46:45;;;;;;;58.40;21.73;;;6.80;99.90;;;;;;6147827;23;20044;-69
2022/12/24 01:49:13;;;;;;;53.83;21.25;;;6.80;99.90;;;;;;6150412;23;20021;-69
2022/12/24 01:51:45;;;;;;;50.53;21.20;;;6.90;99.90;;;;;;6149841;23;20077;-70
2022/12/24 01:54:19;;;;;;;47.28;20.85;;;6.90;99.90;;;;;;6149760;23;20047;-68
2022/12/24 01:56:51;;;;;;;48.70;20.27;;;6.90;99.90;;;;;;6148883;23;20025;-69
2022/12/24 01:59:18;;;;;;;48.13;21.00;;;6.80;99.90;;;;;;6148052;23;20483;-69
2022/12/24 02:01:47;;;;;;;45.85;21.35;;;6.90;99.90;;;;;;6175075;23;20017;-69
2022/12/24 02:04:18;;;;;;;44.60;21.38;;;6.90;99.90;;;;;;6150757;23;20036;-69
2022/12/24 02:06:44;;;;;;;44.60;20.52;;;7.00;99.90;;;;;;6173673;23;20037;-69
2022/12/24 02:09:10;;;;;;;48.40;21.60;;;7.10;99.90;;;;;;6148961;23;20029;-69
2022/12/24 02:11:39;;;;;;;43.45;19.23;;;7.10;99.90;;;;;;6151798;23;20024;-69
2022/12/24 02:14:05;;;;;;;40.65;19.55;;;7.20;99.90;;;;;;6174855;23;20571;-68
2022/12/24 02:16:49;;;;;;;34.30;17.92;;;7.10;99.90;;;;;;6147798;23;20024;-69
2022/12/24 02:19:18;;;;;;;38.33;16.85;;;7.20;99.90;;;;;;6176972;23;20029;-69
2022/12/24 02:21:46;;;;;;;31.83;17.05;;;7.30;99.90;;;;;;6176433;23;20036;-68
2022/12/24 02:24:15;;;;;;;35.78;18.45;;;7.40;99.90;;;;;;6152392;23;20024;-70
2022/12/24 02:27:10;;;;;;;31.50;16.95;;;7.30;99.90;;;;;;6152332;23;20025;-70
2022/12/24 02:29:44;;;;;;;34.67;16.17;;;7.40;99.90;;;;;;6149394;23;20470;-69
2022/12/24 02:32:13;;;;;;;33.85;15.07;;;7.50;99.90;;;;;;6175737;23;20032;-69
2022/12/24 02:34:54;;;;;;;29.38;13.77;;;7.40;99.90;;;;;;6175401;23;20357;-70
2022/12/24 02:37:30;;;;;;;30.85;13.68;;;7.60;99.90;;;;;;6147010;23;20036;-69
2022/12/24 02:40:16;;;;;;;22.80;9.23;;;7.60;99.90;;;;;;6150785;23;20459;-69
2022/12/24 02:42:49;;;;;;;28.05;10.40;;;7.70;99.90;;;;;;6148116;23;20063;-70
2022/12/24 02:45:19;;;;;;;25.95;10.60;;;7.70;99.90;;;;;;6172785;23;20017;-70
2022/12/24 02:47:45;;;;;;;21.17;9.35;;;7.70;99.90;;;;;;6171570;23;20469;-69
2022/12/24 02:50:16;;;;;;;20.35;8.75;;;7.70;99.90;;;;;;6174733;23;20025;-69
2022/12/24 02:52:45;;;;;;;18.67;6.75;;;7.70;99.90;;;;;;6149847;23;20021;-68
2022/12/24 02:55:13;;;;;;;22.40;8.15;;;7.80;99.90;;;;;;6149616;23;20024;-69
2022/12/24 02:57:44;;;;;;;22.52;8.15;;;7.80;99.90;;;;;;6147153;23;20032;-69
2022/12/24 03:00:14;;;;;;;20.15;7.47;;;7.90;99.90;;;;;;6173622;23;20032;-69
2022/12/24 03:03:06;;;;;;;22.30;8.30;;;7.90;99.90;;;;;;6145427;23;20013;-69
2022/12/24 03:05:51;;;;;;;23.70;7.07;;;7.90;99.90;;;;;;6174928;23;20025;-70
2022/12/24 03:08:56;;;;;;;25.95;7.22;;;8.00;99.90;;;;;;6147099;23;20028;-69
2022/12/24 03:11:22;;;;;;;22.75;7.75;;;8.10;99.90;;;;;;6140273;23;20031;-70
2022/12/24 03:13:48;;;;;;;23.15;6.90;;;8.00;99.90;;;;;;6176206;23;20100;-70
2022/12/24 03:16:20;;;;;;;15.68;6.20;;;8.10;99.90;;;;;;6145566;23;20184;-69
2022/12/24 03:18:48;;;;;;;30.75;8.15;;;8.20;99.90;;;;;;6151699;23;20024;-70
2022/12/24 03:21:24;;;;;;;27.55;7.90;;;8.20;99.90;;;;;;6152208;23;20382;-70
2022/12/24 03:23:50;;;;;;;30.20;8.60;;;8.10;99.90;;;;;;6174214;23;20024;-70
2022/12/24 03:26:17;;;;;;;20.73;7.63;;;8.20;99.90;;;;;;6177465;23;20096;-70
2022/12/24 03:28:44;;;;;;;32.13;8.65;;;8.20;99.90;;;;;;6176480;23;20409;-70
2022/12/24 03:31:10;;;;;;;26.73;8.00;;;8.20;99.90;;;;;;6149989;23;20509;-70
2022/12/24 03:33:36;;;;;;;30.10;7.93;;;8.20;99.90;;;;;;6153677;23;20040;-70
2022/12/24 03:36:03;;;;;;;31.33;8.15;;;8.30;99.90;;;;;;6174540;23;20021;-70
2022/12/24 03:38:29;;;;;;;26.77;7.00;;;8.20;99.90;;;;;;6177443;23;20021;-70
2022/12/24 03:40:55;;;;;;;33.33;6.65;;;8.20;99.90;;;;;;6177212;23;20609;-69
2022/12/24 03:43:21;;;;;;;39.63;7.28;;;8.20;99.90;;;;;;6171501;23;20075;-69
2022/12/24 03:45:47;;;;;;;45.65;6.47;;;8.10;99.90;;;;;;6174474;23;20025;-70
2022/12/24 03:48:12;;;;;;;31.15;6.75;;;8.10;99.90;;;;;;6175357;23;20021;-70
2022/12/24 03:50:38;;;;;;;42.53;6.13;;;8.00;99.90;;;;;;6173570;23;20869;-70
2022/12/24 03:53:04;;;;;;;33.08;5.90;;;7.90;99.90;;;;;;6174720;23;20100;-69
2022/12/24 03:55:29;;;;;;;41.30;6.15;;;7.80;99.90;;;;;;6173253;23;20017;-70
2022/12/24 03:57:55;;;;;;;37.95;5.72;;;7.70;99.90;;;;;;6173917;23;20013;-70
2022/12/24 04:00:21;;;;;;;43.45;6.53;;;7.60;99.90;;;;;;6173517;23;20033;-69
2022/12/24 04:02:46;;;;;;;40.75;5.47;;;7.60;99.90;;;;;;6173752;23;20044;-69
2022/12/24 04:05:18;;;;;;;47.25;6.38;;;7.60;99.90;;;;;;6176192;23;20104;-70
2022/12/24 04:07:43;;;;;;;38.50;5.78;;;7.40;99.90;;;;;;6176457;23;20023;-70
2022/12/24 04:10:10;;;;;;;47.28;7.25;;;7.50;99.90;;;;;;6174037;23;20435;-70
2022/12/24 04:12:36;;;;;;;49.90;6.85;;;7.40;99.90;;;;;;6169119;23;20440;-70
2022/12/24 04:15:04;;;;;;;42.83;6.05;;;7.40;99.90;;;;;;6176805;23;20017;-69
2022/12/24 04:17:29;;;;;;;52.17;6.63;;;7.40;99.90;;;;;;6175062;23;20106;-70
2022/12/24 04:19:55;;;;;;;39.90;5.07;;;7.50;99.90;;;;;;6175790;23;20021;-69
2022/12/24 04:22:21;;;;;;;49.38;7.22;;;7.50;99.90;;;;;;6175210;23;20025;-70
2022/12/24 04:24:46;;;;;;;34.88;5.63;;;7.50;99.90;;;;;;6177669;23;20043;-70
2022/12/24 04:27:15;;;;;;;49.38;7.32;;;7.60;99.90;;;;;;6173421;23;20092;-70
2022/12/24 04:29:41;;;;;;;46.65;8.48;;;7.60;99.90;;;;;;6174789;23;20483;-70
2022/12/24 04:32:06;;;;;;;53.38;6.15;;;7.70;99.90;;;;;;6172562;23;20025;-69
2022/12/24 04:34:32;;;;;;;49.35;6.90;;;7.60;99.90;;;;;;6173480;23;20044;-70
2022/12/24 04:36:58;;;;;;;51.58;7.93;;;7.60;99.90;;;;;;6174451;23;20016;-70
2022/12/24 04:39:23;;;;;;;58.30;8.88;;;7.70;99.90;;;;;;6175665;23;20020;-70
2022/12/24 04:41:49;;;;;;;46.30;8.07;;;7.70;99.90;;;;;;6175978;23;20464;-70
2022/12/24 04:44:15;;;;;;;56.03;9.00;;;7.70;99.90;;;;;;6176688;23;20480;-70
2022/12/24 04:46:41;;;;;;;50.45;7.95;;;7.70;99.90;;;;;;6175770;23;20814;-70
2022/12/24 04:49:07;;;;;;;49.58;8.43;;;7.80;99.90;;;;;;6169797;23;20039;-70
2022/12/24 04:51:33;;;;;;;45.72;7.03;;;7.90;99.90;;;;;;6174442;23;20021;-70
2022/12/24 04:53:59;;;;;;;52.42;7.72;;;7.90;99.90;;;;;;6176229;23;20081;-69
2022/12/24 04:56:27;;;;;;;42.20;7.75;;;7.90;99.90;;;;;;6173155;23;20021;-70
2022/12/24 04:58:54;;;;;;;61.85;7.25;;;7.90;99.90;;;;;;6175785;23;20020;-70
2022/12/24 05:01:25;;;;;;;56.53;7.82;;;8.00;99.90;;;;;;6172669;23;20024;-70
2022/12/24 05:03:51;;;;;;;60.08;6.70;;;8.10;99.90;;;;;;6176893;23;20031;-69
2022/12/24 05:06:21;;;;;;;64.30;8.00;;;8.10;99.90;;;;;;6174311;23;20033;-70
2022/12/24 05:08:46;;;;;;;64.05;8.25;;;8.10;99.90;;;;;;6175145;23;20025;-69
2022/12/24 05:11:15;;;;;;;50.80;8.70;;;8.10;99.90;;;;;;6173941;23;20051;-71
2022/12/24 05:13:42;;;;;;;47.10;7.07;;;8.10;99.90;;;;;;6174913;23;20049;-70
2022/12/24 05:16:09;;;;;;;44.22;6.22;;;8.10;99.90;;;;;;6173817;23;20128;-70
2022/12/24 05:18:34;;;;;;;43.20;7.18;;;8.10;99.90;;;;;;6174925;23;20025;-70
2022/12/24 05:21:00;;;;;;;48.17;6.95;;;8.10;99.90;;;;;;6175457;23;20046;-72
2022/12/24 05:26:34;;;;;;;56.90;6.40;;;8.10;99.90;;;;;;6173894;23;20048;-70
2022/12/24 05:29:01;;;;;;;54.22;8.73;;;8.00;99.90;;;;;;6178154;23;20033;-70
2022/12/24 05:31:28;;;;;;;53.83;6.30;;;7.90;99.90;;;;;;6171749;23;20021;-70
2022/12/24 05:33:54;;;;;;;52.75;6.90;;;7.90;99.90;;;;;;6177412;23;20056;-71
2022/12/24 05:36:20;;;;;;;48.92;7.55;;;7.80;99.90;;;;;;6175503;23;20330;-71
2022/12/24 05:38:46;;;;;;;52.00;6.88;;;7.90;99.90;;;;;;6175219;23;20032;-70
2022/12/24 05:41:12;;;;;;;45.60;7.65;;;7.90;99.90;;;;;;6175722;23;20020;-70
2022/12/24 05:43:38;;;;;;;52.60;7.35;;;7.90;99.90;;;;;;6176917;23;20021;-69
2022/12/24 05:46:07;;;;;;;46.97;6.32;;;7.90;99.90;;;;;;6147777;23;20474;-72
2022/12/24 05:48:34;;;;;;;46.72;7.50;;;7.80;99.90;;;;;;6151967;23;20424;-72
2022/12/24 05:51:04;;;;;;;40.88;5.95;;;7.80;99.90;;;;;;6151565;23;20361;-72
2022/12/24 05:53:30;;;;;;;50.97;6.95;;;7.80;99.90;;;;;;6152308;23;20092;-72
2022/12/24 05:56:05;;;;;;;42.97;8.75;;;7.70;99.90;;;;;;6176668;23;20068;-72
2022/12/24 05:58:31;;;;;;;41.95;7.03;;;7.70;99.90;;;;;;6151641;23;20017;-72
2022/12/24 06:00:56;;;;;;;42.88;7.60;;;7.60;99.90;;;;;;6177567;23;20096;-72
2022/12/24 06:03:22;;;;;;;52.40;6.55;;;7.60;99.90;;;;;;6151036;23;20382;-72
2022/12/24 06:05:48;;;;;;;45.03;6.45;;;7.60;99.90;;;;;;6178003;23;20100;-72
2022/12/24 06:08:13;;;;;;;41.25;7.28;;;7.50;99.90;;;;;;6177464;23;20032;-71
2022/12/24 06:10:39;;;;;;;51.42;6.80;;;7.50;99.90;;;;;;6178933;23;20025;-72
2022/12/24 06:13:04;;;;;;;51.55;7.18;;;7.30;99.90;;;;;;6176816;23;20112;-73
2022/12/24 06:15:30;;;;;;;54.05;7.05;;;7.40;99.90;;;;;;6178842;23;20017;-72
2022/12/24 06:17:56;;;;;;;47.05;7.47;;;7.30;99.90;;;;;;6175704;23;20257;-73
2022/12/24 06:20:21;;;;;;;43.45;7.10;;;7.30;99.90;;;;;;6177526;23;20095;-72
2022/12/24 06:22:47;;;;;;;37.08;6.38;;;7.30;99.90;;;;;;6150931;23;20029;-72
2022/12/24 06:25:13;;;;;;;47.70;6.60;;;7.10;99.90;;;;;;6177089;23;20033;-71
2022/12/24 06:27:39;;;;;;;47.22;6.82;;;7.20;99.90;;;;;;6176834;23;20017;-72
2022/12/24 06:30:05;;;;;;;58.97;7.45;;;7.10;99.90;;;;;;6176850;23;20021;-72
2022/12/24 06:32:31;;;;;;;56.83;7.88;;;7.20;99.90;;;;;;6174044;23;20025;-72
2022/12/24 06:34:56;;;;;;;39.28;5.93;;;7.10;99.90;;;;;;6175965;23;20048;-72
2022/12/24 06:37:22;;;;;;;54.53;6.47;;;7.00;99.90;;;;;;6175961;23;20025;-72
2022/12/24 06:39:48;;;;;;;45.92;6.00;;;7.00;99.90;;;;;;6152442;23;20165;-72
2022/12/24 06:42:13;;;;;;;55.53;7.18;;;7.00;99.90;;;;;;6149610;23;20044;-72
2022/12/24 06:44:39;;;;;;;47.00;7.15;;;7.00;99.90;;;;;;6151112;23;20099;-72
2022/12/24 06:47:05;;;;;;;47.63;6.70;;;7.00;99.90;;;;;;6173215;23;20072;-72
2022/12/24 06:49:30;;;;;;;37.88;6.32;;;7.00;99.90;;;;;;6177960;23;20029;-72
2022/12/24 06:51:56;;;;;;;43.33;5.72;;;7.00;99.90;;;;;;6176345;23;20027;-72
2022/12/24 06:54:22;;;;;;;44.75;6.38;;;6.90;99.90;;;;;;6149155;23;20354;-72
2022/12/24 06:56:47;;;;;;;47.72;6.45;;;6.90;99.90;;;;;;6177108;23;20021;-72
2022/12/24 06:59:13;;;;;;;43.80;7.38;;;7.00;99.90;;;;;;6176216;23;20102;-72
2022/12/24 07:01:38;;;;;;;49.92;8.02;;;6.80;99.90;;;;;;6149223;23;20052;-72
2022/12/24 07:04:04;;;;;;;43.38;9.10;;;6.80;99.90;;;;;;6150339;23;20029;-72
2022/12/24 07:06:30;;;;;;;51.83;6.40;;;6.70;99.90;;;;;;6151349;23;20147;-72
2022/12/24 07:08:55;;;;;;;39.03;6.18;;;6.80;99.90;;;;;;6176049;23;20028;-72
2022/12/24 07:11:23;;;;;;;51.15;6.03;;;6.80;99.90;;;;;;6149134;23;20092;-72
2022/12/24 07:13:49;;;;;;;43.75;6.30;;;6.70;99.90;;;;;;6177683;23;20020;-71
2022/12/24 07:16:16;;;;;;;32.60;6.25;;;6.70;99.90;;;;;;6148797;23;20362;-72
2022/12/24 07:18:41;;;;;;;54.63;7.22;;;6.70;99.90;;;;;;6148131;23;20052;-71
2022/12/24 07:21:07;;;;;;;44.35;5.90;;;6.70;99.90;;;;;;6149545;23;20044;-72
2022/12/24 07:23:33;;;;;;;48.05;5.55;;;6.70;99.90;;;;;;6175446;23;20051;-72
2022/12/24 07:26:06;;;;;;;40.88;5.88;;;6.70;99.90;;;;;;6177129;23;20086;-72
2022/12/24 07:28:32;;;;;;;47.28;8.30;;;6.70;99.90;;;;;;6176071;23;20028;-72
2022/12/24 07:30:58;;;;;;;40.10;6.57;;;6.70;99.90;;;;;;6149541;23;20029;-72
2022/12/24 07:33:25;;;;;;;53.95;6.88;;;6.70;99.90;;;;;;6153068;23;20073;-72
2022/12/24 07:36:03;;;;;;;47.67;6.45;;;6.70;99.90;;;;;;6174009;23;20460;-72
2022/12/24 07:38:29;;;;;;;47.13;7.15;;;6.70;99.90;;;;;;6172953;23;20021;-72
2022/12/24 07:40:54;;;;;;;50.10;7.18;;;6.70;99.90;;;;;;6176133;23;20028;-72
2022/12/24 07:43:20;;;;;;;47.28;7.28;;;6.70;99.90;;;;;;6177045;23;20039;-72
2022/12/24 07:45:46;;;;;;;54.30;7.40;;;6.60;99.90;;;;;;6175678;23;20616;-72
2022/12/24 07:48:12;;;;;;;55.53;6.47;;;6.60;99.90;;;;;;6173538;23;20099;-72
2022/12/24 07:50:37;;;;;;;58.58;9.43;;;6.70;99.90;;;;;;6173950;23;20385;-72
2022/12/24 07:53:03;;;;;;;49.80;7.25;;;6.60;99.90;;;;;;6175447;23;20035;-72
2022/12/24 07:55:28;;;;;;;39.13;7.00;;;6.70;99.90;;;;;;6176621;23;20409;-72
2022/12/24 07:57:54;;;;;;;51.38;7.93;;;6.80;99.90;;;;;;6175642;23;20465;-72
2022/12/24 08:00:20;;;;;;;47.63;7.07;;;6.80;99.90;;;;;;6173822;23;20040;-71
2022/12/24 08:02:46;;;;;;;42.95;6.50;;;6.80;99.90;;;;;;6173311;23;20398;-72
2022/12/24 08:05:14;;;;;;;47.33;6.82;;;6.90;99.90;;;;;;6174512;23;20465;-72
2022/12/24 08:07:40;;;;;;;49.35;7.38;;;6.90;99.90;;;;;;6175573;23;20029;-72
2022/12/24 08:10:06;;;;;;;48.03;7.60;;;7.00;99.90;;;;;;6174344;23;20032;-72
2022/12/24 08:12:32;;;;;;;49.83;7.70;;;7.00;99.90;;;;;;6175988;23;20155;-71
2022/12/24 08:14:57;;;;;;;61.10;8.80;;;7.00;99.90;;;;;;6175452;23;20052;-72
2022/12/24 08:17:23;;;;;;;43.65;8.07;;;7.10;99.90;;;;;;6175252;23;20044;-71
2022/12/24 08:19:49;;;;;;;48.33;7.20;;;7.10;99.90;;;;;;6174534;23;20543;-72
2022/12/24 08:22:15;;;;;;;39.00;5.70;;;7.20;99.90;;;;;;6175605;23;20104;-72
2022/12/24 08:24:40;;;;;;;45.60;6.90;;;7.40;99.90;;;;;;6176217;23;20027;-72
2022/12/24 08:27:06;;;;;;;39.17;6.32;;;7.40;99.90;;;;;;6175853;23;20473;-71
2022/12/24 08:29:32;;;;;;;40.90;7.47;;;7.50;99.90;;;;;;6176482;23;20407;-72
2022/12/24 08:31:57;;;;;;;44.92;7.10;;;7.50;99.90;;;;;;6174182;23;20104;-72
2022/12/24 08:34:23;;;;;;;47.53;6.07;;;7.60;99.90;;;;;;6172851;23;20027;-72
2022/12/24 08:36:48;;;;;;;42.85;7.43;;;7.60;99.90;;;;;;6177105;23;20100;-72
2022/12/24 08:39:14;;;;;;;56.38;8.13;;;7.60;99.90;;;;;;6175998;23;20021;-72
2022/12/24 08:41:40;;;;;;;38.47;7.43;;;7.70;99.90;;;;;;6185954;23;20035;-72
2022/12/24 08:44:05;;;;;;;40.85;6.45;;;7.80;99.90;;;;;;6179021;23;20028;-72
2022/12/24 08:46:31;;;;;;;40.88;6.65;;;7.70;99.90;;;;;;6178272;23;20021;-72
2022/12/24 08:48:56;;;;;;;42.45;6.65;;;7.80;99.90;;;;;;6172903;23;20029;-72
2022/12/24 08:51:22;;;;;;;45.22;7.22;;;7.90;99.90;;;;;;6174761;23;20088;-70
2022/12/24 08:53:48;;;;;;;45.42;7.45;;;7.90;99.90;;;;;;6176160;23;20044;-71
2022/12/24 08:56:13;;;;;;;47.67;8.07;;;7.90;99.90;;;;;;6178526;23;20021;-71
2022/12/24 08:58:39;;;;;;;43.20;6.18;;;8.00;99.90;;;;;;6174983;23;20028;-70
2022/12/24 09:01:19;;;;;;;46.60;6.63;;;8.00;99.90;;;;;;6171621;23;20057;-71
2022/12/24 09:03:45;;;;;;;44.53;6.97;;;8.00;99.90;;;;;;6174511;23;20059;-70
2022/12/24 09:06:11;;;;;;;42.90;6.82;;;8.10;99.90;;;;;;6173296;23;20040;-70
2022/12/24 09:08:37;;;;;;;43.05;5.97;;;8.00;99.90;;;;;;6170029;23;20028;-71
2022/12/24 09:11:09;;;;;;;40.70;7.03;;;8.00;99.90;;;;;;6165031;23;20025;-71
2022/12/24 09:13:35;;;;;;;42.50;6.60;;;8.10;99.90;;;;;;6169727;23;20555;-71
2022/12/24 09:16:01;;;;;;;44.70;6.82;;;8.10;99.90;;;;;;6171897;23;20024;-70
2022/12/24 09:18:27;;;;;;;36.33;7.30;;;8.10;99.90;;;;;;6171794;23;20024;-68
2022/12/24 09:20:59;;;;;;;41.63;6.47;;;8.20;99.90;;;;;;6172612;23;20067;-68
2022/12/24 09:23:24;;;;;;;36.78;7.28;;;8.20;99.90;;;;;;6176958;23;20457;-69
2022/12/24 09:25:50;;;;;;;46.47;7.03;;;8.20;99.90;;;;;;6171777;23;20106;-69
2022/12/24 09:28:19;;;;;;;42.97;7.03;;;8.20;99.90;;;;;;6173340;23;20639;-70
2022/12/24 09:30:53;;;;;;;41.08;6.80;;;8.20;99.90;;;;;;6170272;23;20048;-68
2022/12/24 09:33:18;;;;;;;34.10;6.38;;;8.30;99.90;;;;;;6173037;23;20466;-68
2022/12/24 09:35:44;;;;;;;39.42;7.10;;;8.40;99.90;;;;;;6171376;23;20025;-69
2022/12/24 09:38:10;;;;;;;43.60;6.63;;;8.40;99.90;;;;;;6176395;23;20024;-69
2022/12/24 09:40:38;;;;;;;47.58;5.88;;;8.40;99.90;;;;;;6175436;23;20027;-68
2022/12/24 09:43:15;;;;;;;33.40;6.20;;;8.40;99.90;;;;;;6177792;23;20037;-68
2022/12/24 09:45:49;;;;;;;37.80;5.85;;;8.50;99.90;;;;;;6178233;23;20465;-69
2022/12/24 09:48:16;;;;;;;;;;;8.50;99.90;;;;;;6174213;23;20109;-68
2022/12/24 09:51:19;;;;;;;39.67;5.75;;;8.40;99.90;;;;;;6175899;23;19923;-68
2022/12/24 09:53:52;;;;;;;42.25;5.47;;;8.40;99.90;;;;;;6170156;23;20461;-72
2022/12/24 09:56:22;;;;;;;41.30;5.55;;;8.50;99.90;;;;;;6176037;23;20250;-71
2022/12/24 09:58:58;;;;;;;54.50;7.65;;;8.40;99.90;;;;;;6172839;23;20092;-71
2022/12/24 10:01:24;;;;;;;43.90;6.85;;;8.40;99.90;;;;;;6174459;23;20017;-71
2022/12/24 10:03:50;;;;;;;51.03;8.90;;;8.40;99.90;;;;;;6176221;23;20029;-71
2022/12/24 10:06:20;;;;;;;40.83;7.93;;;8.50;99.90;;;;;;6174779;23;20021;-71
2022/12/24 10:08:55;;;;;;;38.65;5.97;;;8.60;99.90;;;;;;6175790;23;20024;-72
2022/12/24 10:11:42;;;;;;;44.30;6.40;;;8.50;99.90;;;;;;6172762;23;20032;-70
2022/12/24 10:14:07;;;;;;;42.92;7.53;;;8.60;99.90;;;;;;6177304;23;20021;-70
2022/12/24 10:16:46;;;;;;;34.55;7.50;;;8.60;99.90;;;;;;6177523;23;20035;-70
2022/12/24 10:19:31;;;;;;;38.92;6.50;;;8.70;99.90;;;;;;6175988;23;20349;-70
2022/12/24 10:22:18;;;;;;;43.40;6.90;;;8.60;99.90;;;;;;6178517;23;20091;-70
2022/12/24 10:25:20;;;;;;;33.45;6.55;;;8.70;99.90;;;;;;6177833;23;20024;-70
2022/12/24 10:27:57;;;;;;;28.20;5.07;;;8.70;99.90;;;;;;6178201;23;20028;-71
2022/12/24 10:30:23;;;;;;;40.53;6.35;;;8.70;99.90;;;;;;6173666;23;20021;-71
2022/12/24 10:32:51;;;;;;;40.40;5.65;;;8.80;99.90;;;;;;6175961;23;20028;-70
2022/12/24 10:35:25;;;;;;;34.70;5.93;;;8.80;99.90;;;;;;6176032;23;20032;-71
2022/12/24 10:37:52;;;;;;;33.15;6.68;;;8.80;99.90;;;;;;6176930;23;20418;-72
2022/12/24 10:40:34;;;;;;;34.15;5.70;;;8.80;99.90;;;;;;6151081;23;20036;-72
2022/12/24 10:42:59;;;;;;;30.20;6.28;;;8.80;99.90;;;;;;6178488;23;20021;-70
2022/12/24 10:45:34;;;;;;;33.72;4.63;;;8.80;99.90;;;;;;6178941;23;20014;-73
2022/12/24 10:48:06;;;;;;;40.90;6.55;;;8.80;99.90;;;;;;6149320;23;20025;-71
2022/12/24 10:50:39;;;;;;;36.85;6.28;;;8.90;99.90;;;;;;6178282;23;20631;-71
2022/12/24 10:53:31;;;;;;;;;;;8.90;99.90;;;;;;6150812;23;20067;-71
2022/12/24 10:56:05;;;;;;;35.38;5.20;;;8.90;99.90;;;;;;6096918;23;19924;-70
2022/12/24 10:58:32;;;;;;;37.25;6.82;;;8.90;99.90;;;;;;6152299;23;20629;-67
2022/12/24 11:00:58;;;;;;;32.78;5.85;;;9.00;99.90;;;;;;6147837;23;20028;-71
2022/12/24 11:03:35;;;;;;;37.30;5.70;;;9.00;99.90;;;;;;6171938;23;20017;-73
2022/12/24 11:06:11;;;;;;;32.55;6.13;;;8.90;99.90;;;;;;6147117;23;20346;-73
2022/12/24 11:08:39;;;;;;;30.27;5.10;;;9.00;99.90;;;;;;6173575;23;20544;-72
2022/12/24 11:11:23;;;;;;;32.08;5.18;;;9.00;99.90;;;;;;6177583;23;20069;-71
2022/12/24 11:13:49;;;;;;;35.80;4.65;;;9.00;99.90;;;;;;6148217;23;20043;-68
2022/12/24 11:16:23;;;;;;;39.47;5.65;;;9.00;99.90;;;;;;6145241;23;20468;-68
2022/12/24 11:18:54;;;;;;;39.47;6.90;;;9.00;99.90;;;;;;6146574;23;20024;-68
2022/12/24 11:21:25;;;;;;;34.08;5.20;;;9.10;99.90;;;;;;6147037;23;20096;-68
2022/12/24 11:23:55;;;;;;;23.35;4.10;;;9.10;99.90;;;;;;6174994;23;20025;-68
2022/12/24 11:26:23;;;;;;;31.92;4.88;;;9.10;99.90;;;;;;6146251;23;20032;-68
2022/12/24 11:29:23;;;;;;;28.23;4.85;;;9.10;99.90;;;;;;6149450;23;20031;-66
2022/12/24 11:31:53;;;;;;;29.05;4.88;;;9.10;99.90;;;;;;6174769;23;20049;-66
2022/12/24 11:34:31;;;;;;;32.22;5.85;;;9.10;99.90;;;;;;6162973;23;20021;-67
2022/12/24 11:37:22;;;;;;;21.88;3.83;;;9.10;99.90;;;;;;6173417;23;20075;-67
2022/12/24 11:39:51;;;;;;;18.58;4.53;;;9.10;99.90;;;;;;6173687;23;20024;-67
2022/12/24 11:42:37;;;;;;;26.38;5.78;;;9.20;99.90;;;;;;6174423;23;20462;-72
2022/12/24 11:45:16;;;;;;;23.67;5.18;;;9.20;99.90;;;;;;6174196;23;20268;-68
2022/12/24 11:47:42;;;;;;;27.88;6.65;;;9.20;99.90;;;;;;6172330;23;20027;-68
2022/12/24 11:50:25;;;;;;;27.55;4.63;;;9.20;99.90;;;;;;6172498;23;20021;-67
2022/12/24 11:52:54;;;;;;;31.17;5.55;;;9.20;99.90;;;;;;6173896;23;20350;-68
2022/12/24 11:55:32;;;;;;;18.73;4.28;;;9.20;99.90;;;;;;6174697;23;20028;-68
2022/12/24 11:58:13;;;;;;;24.52;4.78;;;9.20;99.90;;;;;;6175122;23;20050;-67
2022/12/24 12:00:40;;;;;;;29.70;4.60;;;9.30;99.90;;;;;;6174155;23;20068;-68
2022/12/24 12:03:51;;;;;;;29.98;4.95;;;9.30;99.90;;;;;;6173148;23;20419;-69
2022/12/24 12:06:23;;;;;;;22.48;3.95;;;9.30;99.90;;;;;;6052687;23;20063;-68
2022/12/24 12:08:55;;;;;;;25.73;4.60;;;9.20;99.90;;;;;;6055475;23;20053;-68
2022/12/24 12:11:22;;;;;;;27.88;4.80;;;9.30;99.90;;;;;;6118386;23;20036;-68
2022/12/24 12:13:48;;;;;;;30.90;5.20;;;9.20;99.90;;;;;;6172957;23;20029;-69
2022/12/24 12:16:24;;;;;;;25.17;5.13;;;9.30;99.90;;;;;;6172589;23;20087;-68
2022/12/24 12:18:58;;;;;;;27.30;4.43;;;9.20;99.90;;;;;;6176236;23;20072;-67
2022/12/24 12:21:31;;;;;;;24.77;4.05;;;9.20;99.90;;;;;;6175906;23;20064;-67
2022/12/24 12:24:04;;;;;;;32.60;5.50;;;9.20;99.90;;;;;;6175433;23;20043;-68
2022/12/24 12:26:34;;;;;;;25.90;4.53;;;9.30;99.90;;;;;;6173397;23;20072;-68
2022/12/24 12:29:05;;;;;;;24.00;3.72;;;9.20;99.90;;;;;;6175929;23;20088;-69
2022/12/24 12:31:37;;;;;;;23.08;4.30;;;9.20;99.90;;;;;;6175517;23;20021;-68
2022/12/24 12:34:27;;;;;;;17.15;3.13;;;9.20;99.90;;;;;;6171890;23;20032;-69
2022/12/24 12:36:59;;;;;;;18.50;2.90;;;9.10;99.90;;;;;;6175294;23;20021;-69
2022/12/24 12:39:25;;;;;;;25.42;5.13;;;9.20;99.90;;;;;;6171337;23;20013;-67
2022/12/24 12:41:54;;;;;;;20.25;3.72;;;9.20;99.90;;;;;;6172120;23;20075;-66
2022/12/24 12:44:34;;;;;;;23.35;5.43;;;9.20;99.90;;;;;;6174637;23;20025;-67
2022/12/24 12:47:37;;;;;;;18.27;4.57;;;9.20;99.90;;;;;;6174572;23;20029;-67
2022/12/24 12:50:45;;;;;;;22.05;3.45;;;9.20;99.90;;;;;;6173433;23;20025;-67
2022/12/24 12:53:33;;;;;;;18.55;4.10;;;9.20;99.90;;;;;;6111661;23;20020;-68
2022/12/24 12:56:30;;;;;;;24.52;4.78;;;9.20;99.90;;;;;;6174811;23;20087;-66
2022/12/24 12:59:14;;;;;;;20.13;3.55;;;9.20;99.90;;;;;;6177199;23;20017;-67
2022/12/24 13:01:57;;;;;;;26.15;4.97;;;9.10;99.90;;;;;;6174090;23;20462;-67
2022/12/24 13:04:43;;;;;;;17.52;3.33;;;9.10;99.90;;;;;;6175030;23;20029;-67
2022/12/24 13:08:03;;;;;;;19.20;5.38;;;9.00;99.90;;;;;;6174359;23;20031;-68